createdAt,value
2018-02-04T00:00:28.276Z,4.68
2018-02-04T00:02:54.839Z,3.70
2018-02-04T00:05:21.217Z,3.42
2018-02-04T00:07:48.144Z,4.53
2018-02-04T00:10:14.656Z,3.47
2018-02-04T00:12:41.208Z,3.28
2018-02-04T00:15:09.008Z,4.03
2018-02-04T00:17:35.511Z,2.70
2018-02-04T00:20:02.076Z,1.98
2018-02-04T00:22:37.678Z,2.50
2018-02-04T00:25:04.747Z,2.10
2018-02-04T00:27:31.783Z,2.55
2018-02-04T00:29:58.309Z,2.20
2018-02-04T00:32:24.892Z,2.87
2018-02-04T00:34:51.436Z,2.50
2018-02-04T00:37:18.036Z,2.60
2018-02-04T00:39:44.450Z,3.00
2018-02-04T00:42:11.055Z,2.72
2018-02-04T00:44:38.549Z,2.50
2018-02-04T00:47:04.987Z,3.20
2018-02-04T00:49:31.534Z,3.10
2018-02-04T00:51:57.922Z,4.00
2018-02-04T00:54:24.577Z,3.62
2018-02-04T00:56:51.131Z,3.80
2018-02-04T00:59:17.750Z,5.10
2018-02-04T01:01:44.262Z,4.62
2018-02-04T01:04:10.709Z,5.15
2018-02-04T01:06:37.338Z,4.95
2018-02-04T01:09:04.228Z,5.00
2018-02-04T01:11:30.719Z,3.53
2018-02-04T01:13:57.244Z,3.72
2018-02-04T01:16:23.755Z,4.12
2018-02-04T01:18:50.292Z,3.25
2018-02-04T01:21:16.862Z,3.65
2018-02-04T01:23:43.327Z,3.42
2018-02-04T01:26:09.745Z,2.50
2018-02-04T01:28:36.383Z,1.77
2018-02-04T01:31:02.912Z,2.10
2018-02-04T01:33:29.551Z,1.60
2018-02-04T01:35:56.003Z,1.80
2018-02-04T01:38:22.591Z,1.70
2018-02-04T01:40:49.080Z,2.03
2018-02-04T01:43:15.595Z,2.00
2018-02-04T01:45:42.431Z,2.45
2018-02-04T01:48:10.022Z,1.90
2018-02-04T01:50:36.477Z,2.20
2018-02-04T01:53:02.963Z,2.28
2018-02-04T01:55:29.503Z,2.10
2018-02-04T01:57:55.900Z,2.15
2018-02-04T02:00:22.884Z,2.05
2018-02-04T02:02:49.415Z,2.05
2018-02-04T02:05:15.939Z,1.73
2018-02-04T02:07:42.825Z,2.10
2018-02-04T02:10:10.198Z,1.58
2018-02-04T02:12:36.786Z,2.75
2018-02-04T02:17:52.897Z,1.40
2018-02-04T02:20:19.434Z,1.42
2018-02-04T02:22:45.972Z,1.17
2018-02-04T02:25:12.630Z,1.73
2018-02-04T02:27:39.045Z,2.15
2018-02-04T02:30:05.616Z,1.20
2018-02-04T02:32:32.412Z,1.52
2018-02-04T02:34:58.810Z,1.40
2018-02-04T02:37:25.799Z,1.90
2018-02-04T02:39:52.644Z,1.33
2018-02-04T02:42:19.528Z,1.20
2018-02-04T02:44:46.070Z,1.30
2018-02-04T02:47:12.626Z,1.85
2018-02-04T02:49:39.143Z,0.85
2018-02-04T02:52:05.626Z,1.50
2018-02-04T02:54:32.161Z,0.95
2018-02-04T02:56:58.756Z,0.80
2018-02-04T02:59:25.267Z,0.70
2018-02-04T03:01:51.766Z,1.15
2018-02-04T03:04:18.691Z,1.25
2018-02-04T03:06:45.199Z,1.35
2018-02-04T03:09:12.138Z,1.15
2018-02-04T03:11:39.182Z,1.60
2018-02-04T03:14:05.661Z,1.62
2018-02-04T03:16:32.245Z,1.27
2018-02-04T03:18:58.643Z,0.90
2018-02-04T03:21:25.301Z,0.80
2018-02-04T03:23:51.817Z,0.70
2018-02-04T03:26:18.318Z,0.80
2018-02-04T03:28:44.886Z,0.60
2018-02-04T03:31:11.793Z,0.70
2018-02-04T03:33:38.300Z,0.62
2018-02-04T03:36:04.721Z,1.33
2018-02-04T03:38:31.140Z,0.82
2018-02-04T03:40:57.619Z,0.82
2018-02-04T03:43:24.155Z,1.17
2018-02-04T03:45:50.642Z,0.88
2018-02-04T03:48:17.144Z,1.23
2018-02-04T03:50:43.719Z,1.10
2018-02-04T03:53:10.122Z,1.02
2018-02-04T03:55:36.763Z,0.90
2018-02-04T03:58:03.303Z,1.30
2018-02-04T04:00:29.902Z,1.25
2018-02-04T04:02:57.072Z,1.08
2018-02-04T04:05:23.527Z,1.00
2018-02-04T04:07:50.114Z,1.23
2018-02-04T04:10:16.573Z,1.48
2018-02-04T04:12:43.129Z,1.73
2018-02-04T04:15:09.978Z,1.48
2018-02-04T04:17:36.503Z,2.35
2018-02-04T04:20:03.075Z,2.05
2018-02-04T04:22:29.563Z,2.58
2018-02-04T04:24:56.440Z,2.35
2018-02-04T04:27:22.929Z,1.55
2018-02-04T04:29:49.519Z,1.52
2018-02-04T04:32:16.031Z,1.40
2018-02-04T04:34:43.580Z,1.67
2018-02-04T04:37:09.968Z,1.62
2018-02-04T04:39:36.550Z,1.20
2018-02-04T04:42:03.207Z,1.40
2018-02-04T04:44:29.594Z,1.73
2018-02-04T04:46:56.512Z,1.87
2018-02-04T04:49:22.990Z,1.95
2018-02-04T04:51:49.945Z,1.70
2018-02-04T04:54:16.347Z,1.90
2018-02-04T04:56:42.944Z,2.08
2018-02-04T04:59:09.507Z,2.60
2018-02-04T05:01:35.968Z,2.28
2018-02-04T05:04:02.908Z,2.78
2018-02-04T05:06:29.363Z,4.10
2018-02-04T05:08:56.240Z,2.80
2018-02-04T05:11:22.647Z,2.67
2018-02-04T05:13:49.282Z,2.58
2018-02-04T05:16:16.522Z,2.22
2018-02-04T05:18:42.963Z,2.00
2018-02-04T05:21:09.510Z,3.03
2018-02-04T05:23:36.025Z,2.50
2018-02-04T05:26:02.620Z,3.05
2018-02-04T05:28:29.169Z,2.75
2018-02-04T05:30:55.592Z,3.08
2018-02-04T05:33:22.564Z,5.45
2018-02-04T05:35:49.668Z,4.53
2018-02-04T05:38:16.116Z,5.35
2018-02-04T05:40:42.686Z,4.70
2018-02-04T05:43:09.575Z,7.28
2018-02-04T05:45:36.200Z,3.55
2018-02-04T05:48:02.979Z,3.10
2018-02-04T05:50:29.537Z,3.20
2018-02-04T05:52:56.084Z,3.35
2018-02-04T05:55:22.524Z,3.28
2018-02-04T05:57:49.360Z,2.25
2018-02-04T06:00:15.930Z,2.53
2018-02-04T06:02:42.443Z,2.95
2018-02-04T06:05:09.028Z,3.55
2018-02-04T06:07:35.490Z,2.85
2018-02-04T06:10:02.956Z,4.07
2018-02-04T06:12:29.592Z,5.22
2018-02-04T06:14:56.044Z,5.10
2018-02-04T06:17:22.551Z,4.97
2018-02-04T06:19:49.138Z,4.78
2018-02-04T06:22:15.728Z,6.03
2018-02-04T06:24:42.268Z,5.90
2018-02-04T06:27:08.869Z,5.60
2018-02-04T06:29:35.883Z,5.62
2018-02-04T06:32:02.410Z,5.93
2018-02-04T06:34:28.973Z,5.25
2018-02-04T06:36:55.747Z,6.60
2018-02-04T06:39:22.183Z,5.55
2018-02-04T06:41:48.813Z,5.05
2018-02-04T06:44:15.428Z,5.10
2018-02-04T06:46:42.272Z,11.70
2018-02-04T06:49:09.046Z,7.82
2018-02-04T06:51:35.651Z,7.15
2018-02-04T06:54:02.200Z,8.13
2018-02-04T06:56:28.612Z,9.35
2018-02-04T06:58:55.201Z,8.07
2018-02-04T07:01:21.715Z,6.60
2018-02-04T07:03:48.147Z,8.73
2018-02-04T07:06:15.106Z,7.30
2018-02-04T07:08:41.641Z,7.90
2018-02-04T07:11:08.227Z,12.20
2018-02-04T07:13:34.739Z,13.43
2018-02-04T07:16:01.344Z,10.52
2018-02-04T07:18:27.840Z,8.70
2018-02-04T07:20:54.620Z,8.52
2018-02-04T07:23:23.084Z,6.78
2018-02-04T07:25:49.606Z,6.15
2018-02-04T07:28:17.472Z,7.00
2018-02-04T07:30:44.182Z,7.72
2018-02-04T07:33:10.732Z,8.10
2018-02-04T07:35:37.224Z,7.80
2018-02-04T07:38:03.823Z,7.65
2018-02-04T07:40:30.384Z,7.05
2018-02-04T07:42:56.784Z,9.32
2018-02-04T07:45:23.235Z,11.20
2018-02-04T07:47:49.902Z,12.70
2018-02-04T07:50:17.034Z,9.88
2018-02-04T07:52:43.632Z,9.15
2018-02-04T07:55:10.121Z,7.05
2018-02-04T07:57:36.731Z,6.37
2018-02-04T08:00:03.308Z,7.22
2018-02-04T08:02:30.044Z,7.75
2018-02-04T08:04:56.545Z,10.55
2018-02-04T08:07:22.924Z,8.38
2018-02-04T08:09:49.938Z,10.23
2018-02-04T08:12:16.532Z,11.27
2018-02-04T08:14:43.146Z,13.00
2018-02-04T08:17:09.546Z,11.43
2018-02-04T08:19:36.083Z,14.13
2018-02-04T08:22:02.672Z,13.85
2018-02-04T08:24:29.092Z,12.18
2018-02-04T08:26:55.752Z,14.68
2018-02-04T08:29:22.232Z,13.73
2018-02-04T08:31:48.799Z,15.02
2018-02-04T08:34:15.599Z,15.85
2018-02-04T08:36:42.138Z,15.25
2018-02-04T08:39:08.781Z,14.73
2018-02-04T08:41:35.211Z,8.38
2018-02-04T08:44:01.761Z,11.12
2018-02-04T08:46:29.095Z,11.40
2018-02-04T08:48:55.756Z,10.95
2018-02-04T08:51:22.341Z,10.85
2018-02-04T08:53:48.820Z,17.37
2018-02-04T08:56:15.347Z,20.30
2018-02-04T08:58:41.872Z,20.75
2018-02-04T09:01:08.483Z,18.42
2018-02-04T09:03:35.000Z,16.67
2018-02-04T09:06:01.520Z,16.55
2018-02-04T09:08:27.964Z,16.50
2018-02-04T09:10:54.587Z,17.85
2018-02-04T09:13:21.080Z,15.38
2018-02-04T09:15:47.600Z,10.40
2018-02-04T09:18:14.535Z,7.78
2018-02-04T09:20:40.985Z,7.10
2018-02-04T09:23:07.716Z,9.65
2018-02-04T09:25:34.502Z,9.60
2018-02-04T09:28:01.556Z,11.82
2018-02-04T09:30:28.060Z,7.82
2018-02-04T09:32:54.616Z,4.75
2018-02-04T09:35:21.152Z,4.87
2018-02-04T09:37:47.679Z,3.60
2018-02-04T09:40:14.228Z,5.05
2018-02-04T09:42:40.621Z,13.70
2018-02-04T09:45:07.282Z,15.05
2018-02-04T09:47:33.841Z,12.02
2018-02-04T09:50:00.398Z,12.25
2018-02-04T09:52:26.936Z,14.38
2018-02-04T09:54:53.407Z,12.93
2018-02-04T09:57:19.973Z,9.85
2018-02-04T09:59:46.552Z,7.05
2018-02-04T10:02:13.049Z,6.50
2018-02-04T10:04:39.547Z,4.70
2018-02-04T10:07:06.118Z,5.30
2018-02-04T10:09:32.925Z,7.05
2018-02-04T10:11:59.455Z,7.57
2018-02-04T10:14:26.084Z,7.07
2018-02-04T10:16:52.577Z,4.30
2018-02-04T10:19:19.146Z,4.55
2018-02-04T10:21:45.618Z,4.55
2018-02-04T10:24:12.407Z,3.85
2018-02-04T10:26:38.881Z,3.40
2018-02-04T10:29:05.495Z,4.20
2018-02-04T10:31:32.149Z,5.00
2018-02-04T10:33:58.588Z,5.35
2018-02-04T10:36:25.094Z,4.75
2018-02-04T10:38:51.664Z,4.57
2018-02-04T10:41:18.225Z,4.55
2018-02-04T10:43:44.724Z,5.20
2018-02-04T10:46:11.292Z,5.12
2018-02-04T10:48:37.822Z,4.65
2018-02-04T10:51:10.227Z,4.28
2018-02-04T10:53:36.998Z,3.75
2018-02-04T10:56:03.536Z,4.60
2018-02-04T10:58:30.075Z,4.47
2018-02-04T11:00:56.713Z,3.22
2018-02-04T11:03:23.196Z,3.00
2018-02-04T11:05:49.834Z,2.40
2018-02-04T11:08:16.828Z,2.60
2018-02-04T11:10:44.353Z,2.20
2018-02-04T11:13:11.166Z,3.35
2018-02-04T11:15:37.665Z,4.60
2018-02-04T11:18:04.505Z,4.10
2018-02-04T11:20:30.910Z,4.55
2018-02-04T11:22:57.660Z,5.60
2018-02-04T11:25:24.112Z,8.35
2018-02-04T11:27:50.671Z,7.40
2018-02-04T11:30:17.248Z,7.07
2018-02-04T11:32:43.712Z,6.20
2018-02-04T11:35:10.263Z,7.22
2018-02-04T11:37:36.698Z,5.15
2018-02-04T11:40:03.368Z,5.62
2018-02-04T11:42:29.854Z,5.65
2018-02-04T11:44:56.465Z,7.22
2018-02-04T11:47:23.022Z,7.47
2018-02-04T11:49:49.488Z,7.62
2018-02-04T11:52:16.007Z,5.87
2018-02-04T11:54:42.512Z,5.47
2018-02-04T11:57:09.169Z,5.43
2018-02-04T11:59:36.595Z,4.78
2018-02-04T12:02:03.084Z,5.72
2018-02-04T12:04:29.624Z,6.30
2018-02-04T12:06:56.490Z,6.10
2018-02-04T12:09:23.097Z,6.65
2018-02-04T12:11:49.884Z,6.60
2018-02-04T12:14:16.400Z,6.45
2018-02-04T12:16:42.890Z,5.25
2018-02-04T12:19:09.471Z,4.75
2018-02-04T12:21:35.932Z,5.78
2018-02-04T12:24:02.472Z,6.97
2018-02-04T12:26:29.400Z,5.43
2018-02-04T12:28:55.886Z,6.00
2018-02-04T12:31:22.399Z,6.30
2018-02-04T12:33:49.352Z,5.50
2018-02-04T12:36:15.788Z,6.28
2018-02-04T12:38:42.188Z,7.15
2018-02-04T12:41:08.918Z,8.43
2018-02-04T12:43:35.450Z,8.50
2018-02-04T12:46:02.247Z,8.00
2018-02-04T12:48:28.836Z,8.18
2018-02-04T12:50:55.412Z,8.07
2018-02-04T12:53:23.141Z,8.50
2018-02-04T12:55:49.627Z,11.12
2018-02-04T12:58:16.139Z,11.73
2018-02-04T13:00:42.732Z,11.18
2018-02-04T13:03:09.265Z,10.90
2018-02-04T13:05:35.735Z,9.60
2018-02-04T13:08:02.408Z,8.23
2018-02-04T13:10:29.175Z,8.32
2018-02-04T13:12:55.772Z,8.13
2018-02-04T13:15:22.217Z,8.05
2018-02-04T13:17:48.730Z,9.45
2018-02-04T13:20:16.077Z,8.85
2018-02-04T13:22:42.540Z,7.35
2018-02-04T13:25:09.255Z,9.23
2018-02-04T13:27:35.859Z,8.43
2018-02-04T13:30:02.392Z,8.25
2018-02-04T13:32:29.508Z,6.85
2018-02-04T13:34:55.977Z,7.95
2018-02-04T13:37:22.576Z,9.50
2018-02-04T13:39:49.044Z,8.40
2018-02-04T13:42:15.591Z,9.63
2018-02-04T13:44:42.196Z,9.00
2018-02-04T13:47:08.695Z,8.05
2018-02-04T13:49:35.200Z,8.75
2018-02-04T13:52:01.776Z,7.40
2018-02-04T13:54:28.284Z,8.80
2018-02-04T13:56:54.836Z,9.18
2018-02-04T13:59:21.353Z,11.25
2018-02-04T14:01:48.029Z,9.40
2018-02-04T14:04:14.788Z,9.48
2018-02-04T14:06:41.275Z,9.10
2018-02-04T14:09:07.819Z,8.25
2018-02-04T14:11:34.334Z,9.25
2018-02-04T14:14:00.896Z,9.10
2018-02-04T14:16:27.477Z,9.25
2018-02-04T14:18:53.988Z,8.63
2018-02-04T14:21:20.478Z,7.65
2018-02-04T14:23:46.999Z,9.95
2018-02-04T14:26:13.567Z,11.48
2018-02-04T14:28:40.409Z,12.65
2018-02-04T14:31:06.921Z,9.13
2018-02-04T14:33:33.549Z,8.88
2018-02-04T14:35:59.984Z,9.40
2018-02-04T14:41:15.925Z,10.80
2018-02-04T14:43:43.052Z,11.60
2018-02-04T14:46:09.595Z,10.30
2018-02-04T14:48:36.650Z,11.07
2018-02-04T14:51:03.552Z,11.15
2018-02-04T14:53:30.337Z,11.93
2018-02-04T14:55:57.206Z,13.57
2018-02-04T14:58:23.783Z,13.50
2018-02-04T15:00:50.244Z,12.07
2018-02-04T15:03:17.158Z,13.30
2018-02-04T15:05:43.647Z,15.05
2018-02-04T15:08:10.178Z,15.32
2018-02-04T15:10:37.032Z,14.52
2018-02-04T15:13:03.537Z,14.90
2018-02-04T15:15:30.220Z,14.20
2018-02-04T15:17:57.247Z,15.10
2018-02-04T15:20:23.893Z,14.23
2018-02-04T15:22:50.827Z,14.15
2018-02-04T15:25:17.519Z,13.43
2018-02-04T15:27:44.668Z,13.73
2018-02-04T15:30:11.319Z,16.00
2018-02-04T15:32:38.161Z,16.10
2018-02-04T15:35:05.211Z,15.60
2018-02-04T15:37:31.712Z,14.80
2018-02-04T15:39:58.200Z,16.10
2018-02-04T15:42:24.737Z,17.12
2018-02-04T15:44:51.443Z,14.10
2018-02-04T15:47:18.451Z,14.87
2018-02-04T15:49:44.888Z,14.10
2018-02-04T15:52:11.490Z,14.25
2018-02-04T15:54:38.025Z,16.02
2018-02-04T15:57:04.638Z,13.32
2018-02-04T15:59:31.807Z,17.35
2018-02-04T16:01:58.669Z,18.17
2018-02-04T16:04:25.823Z,16.98
2018-02-04T16:06:52.717Z,15.35
2018-02-04T16:09:19.413Z,16.98
2018-02-04T16:11:45.914Z,16.92
2018-02-04T16:14:12.464Z,15.07
2018-02-04T16:16:39.064Z,16.02
2018-02-04T16:19:05.549Z,16.67
2018-02-04T16:21:32.106Z,15.48
2018-02-04T16:23:58.707Z,14.18
2018-02-04T16:26:25.733Z,15.02
2018-02-04T16:28:52.326Z,15.40
2018-02-04T16:31:18.816Z,15.68
2018-02-04T16:33:45.228Z,15.40
2018-02-04T16:36:11.865Z,16.75
2018-02-04T16:38:38.395Z,14.68
2018-02-04T16:41:04.997Z,16.30
2018-02-04T16:43:31.462Z,18.15
2018-02-04T16:45:58.024Z,18.10
2018-02-04T16:48:24.637Z,17.77
2018-02-04T16:50:51.781Z,17.60
2018-02-04T16:53:18.288Z,15.50
2018-02-04T16:55:44.750Z,14.35
2018-02-04T16:58:11.243Z,12.27
2018-02-04T17:00:38.122Z,11.88
2018-02-04T17:03:04.695Z,12.55
2018-02-04T17:05:31.218Z,11.02
2018-02-04T17:07:57.636Z,13.50
2018-02-04T17:10:24.368Z,14.80
2018-02-04T17:12:50.829Z,14.25
2018-02-04T17:15:17.451Z,15.48
2018-02-04T17:17:43.949Z,13.93
2018-02-04T17:20:10.413Z,12.27
2018-02-04T17:22:37.031Z,11.02
2018-02-04T17:25:03.491Z,10.48
2018-02-04T17:27:30.041Z,10.25
2018-02-04T17:29:56.911Z,12.02
2018-02-04T17:32:23.465Z,10.95
2018-02-04T17:34:50.311Z,11.00
2018-02-04T17:37:16.860Z,13.27
2018-02-04T17:39:43.429Z,12.70
2018-02-04T17:42:09.921Z,12.07
2018-02-04T17:44:36.520Z,11.45
2018-02-04T17:47:03.287Z,12.00
2018-02-04T17:49:29.843Z,13.05
2018-02-04T17:51:56.332Z,10.23
2018-02-04T17:54:23.194Z,11.82
2018-02-04T17:56:49.778Z,10.00
2018-02-04T17:59:16.316Z,13.07
2018-02-04T18:01:42.781Z,9.95
2018-02-04T18:04:09.596Z,9.55
2018-02-04T18:06:36.167Z,10.05
2018-02-04T18:09:02.691Z,11.57
2018-02-04T18:11:29.204Z,11.40
2018-02-04T18:13:55.854Z,11.88
2018-02-04T18:16:22.281Z,11.38
2018-02-04T18:18:48.814Z,12.68
2018-02-04T18:21:15.421Z,12.25
2018-02-04T18:23:41.984Z,10.52
2018-02-04T18:26:08.437Z,12.93
2018-02-04T18:28:34.958Z,12.05
2018-02-04T18:31:02.476Z,15.00
2018-02-04T18:33:28.943Z,14.00
2018-02-04T18:35:55.535Z,13.25
2018-02-04T18:38:21.996Z,12.57
2018-02-04T18:40:48.585Z,13.88
2018-02-04T18:43:14.999Z,12.77
2018-02-04T18:45:41.605Z,13.55
2018-02-04T18:48:08.143Z,13.65
2018-02-04T18:50:34.747Z,12.57
2018-02-04T18:53:01.248Z,14.27
2018-02-04T18:55:27.819Z,12.48
2018-02-04T18:57:54.295Z,12.65
2018-02-04T19:00:21.128Z,14.40
2018-02-04T19:02:47.721Z,13.18
2018-02-04T19:05:14.647Z,14.63
2018-02-04T19:07:41.363Z,12.63
2018-02-04T19:10:07.966Z,11.85
2018-02-04T19:12:34.507Z,10.82
2018-02-04T19:15:00.964Z,11.25
2018-02-04T19:17:27.811Z,13.52
2018-02-04T19:19:54.325Z,11.68
2018-02-04T19:22:20.903Z,12.55
2018-02-04T19:24:48.350Z,15.75
2018-02-04T19:27:14.744Z,12.15
2018-02-04T19:29:41.404Z,13.57
2018-02-04T19:32:08.016Z,11.12
2018-02-04T19:34:34.485Z,13.15
2018-02-04T19:37:01.007Z,11.88
2018-02-04T19:39:27.640Z,10.50
2018-02-04T19:41:54.079Z,12.93
2018-02-04T19:44:20.537Z,13.13
2018-02-04T19:46:47.196Z,10.25
2018-02-04T19:49:13.735Z,9.88
2018-02-04T19:51:40.512Z,12.10
2018-02-04T19:54:07.070Z,11.88
2018-02-04T19:56:33.648Z,10.30
2018-02-04T19:59:00.111Z,10.52
2018-02-04T20:01:26.895Z,10.18
2018-02-04T20:03:53.522Z,10.82
2018-02-04T20:06:20.039Z,12.07
2018-02-04T20:08:46.638Z,11.55
2018-02-04T20:11:13.790Z,12.40
2018-02-04T20:13:40.243Z,12.60
2018-02-04T20:16:06.965Z,12.10
2018-02-04T20:18:33.645Z,11.65
2018-02-04T20:21:00.220Z,10.90
2018-02-04T20:23:27.657Z,10.73
2018-02-04T20:25:54.472Z,11.93
2018-02-04T20:28:20.926Z,12.95
2018-02-04T20:30:48.547Z,12.10
2018-02-04T20:33:22.787Z,11.50
2018-02-04T20:35:49.201Z,10.40
2018-02-04T20:38:15.799Z,10.98
2018-02-04T20:40:42.283Z,11.23
2018-02-04T20:43:08.818Z,11.70
2018-02-04T20:45:35.864Z,11.43
2018-02-04T20:48:02.317Z,9.93
2018-02-04T20:50:29.342Z,10.80
2018-02-04T20:52:55.939Z,11.00
2018-02-04T20:55:22.434Z,11.55
2018-02-04T20:57:48.930Z,9.63
2018-02-04T21:00:15.796Z,9.90
2018-02-04T21:02:42.472Z,9.60
2018-02-04T21:05:09.536Z,10.38
2018-02-04T21:07:36.014Z,9.77
2018-02-04T21:10:02.651Z,9.95
2018-02-04T21:12:29.068Z,10.00
2018-02-04T21:14:55.692Z,11.70
2018-02-04T21:17:22.199Z,11.43
2018-02-04T21:19:48.729Z,10.70
2018-02-04T21:22:15.271Z,8.77
2018-02-04T21:24:41.807Z,10.05
2018-02-04T21:27:08.313Z,11.65
2018-02-04T21:29:34.896Z,11.00
2018-02-04T21:32:01.367Z,10.30
2018-02-04T21:34:27.940Z,10.30
2018-02-04T21:36:54.550Z,10.45
2018-02-04T21:39:21.624Z,10.00
2018-02-04T21:41:48.168Z,10.50
2018-02-04T21:44:14.956Z,8.55
2018-02-04T21:46:41.860Z,8.95
2018-02-04T21:49:08.275Z,8.73
2018-02-04T21:51:34.928Z,9.77
2018-02-04T21:54:01.470Z,8.23
2018-02-04T21:56:28.547Z,10.60
2018-02-04T21:58:55.098Z,9.48
2018-02-04T22:01:21.713Z,10.30
2018-02-04T22:03:48.167Z,10.25
2018-02-04T22:06:14.567Z,9.88
2018-02-04T22:08:41.547Z,10.07
2018-02-04T22:11:08.150Z,9.15
2018-02-04T22:13:34.736Z,10.98
2018-02-04T22:16:01.443Z,8.63
2018-02-04T22:18:28.307Z,12.90
2018-02-04T22:20:54.857Z,11.00
2018-02-04T22:23:21.441Z,10.40
2018-02-04T22:25:47.917Z,10.20
2018-02-04T22:28:14.559Z,9.23
2018-02-04T22:30:41.591Z,9.27
2018-02-04T22:33:08.342Z,8.70
2018-02-04T22:35:35.084Z,10.18
2018-02-04T22:38:01.491Z,9.65
2018-02-04T22:40:28.049Z,9.43
2018-02-04T22:42:54.619Z,8.60
2018-02-04T22:45:21.135Z,10.98
2018-02-04T22:47:47.635Z,9.88
2018-02-04T22:50:14.037Z,9.27
2018-02-04T22:52:43.512Z,12.55
2018-02-04T22:55:10.069Z,10.48
2018-02-04T22:57:36.564Z,9.20
2018-02-04T23:00:03.158Z,9.32
2018-02-04T23:02:30.255Z,9.45
2018-02-04T23:04:56.780Z,9.13
2018-02-04T23:07:23.630Z,9.60
2018-02-04T23:09:50.220Z,10.60
2018-02-04T23:12:16.700Z,9.00
2018-02-04T23:14:43.272Z,8.70
2018-02-04T23:17:10.092Z,8.30
2018-02-04T23:19:36.678Z,10.25
2018-02-04T23:22:03.174Z,9.52
2018-02-04T23:24:30.062Z,9.75
2018-02-04T23:26:57.420Z,9.65
2018-02-04T23:29:24.016Z,9.98
2018-02-04T23:31:50.556Z,10.75
2018-02-04T23:34:17.016Z,10.55
2018-02-04T23:36:43.672Z,10.65
2018-02-04T23:39:11.009Z,10.88
2018-02-04T23:41:37.617Z,11.10
2018-02-04T23:44:04.075Z,9.50
2018-02-04T23:46:30.699Z,9.25
2018-02-04T23:48:57.167Z,10.15
2018-02-04T23:51:23.700Z,10.35
2018-02-04T23:53:50.271Z,10.77
2018-02-04T23:56:17.103Z,11.63
2018-02-04T23:58:43.611Z,10.45
